Time;durP1;ratioP1;P1;durP2;ratioP2;P2;SDS_P1;SDS_P2;PMS_P1;PMS_P2;Temp;Humidity;BMP_temperature;BMP_pressure;BME280_temperature;BME280_humidity;BME280_pressure;Samples;Min_cycle;Max_cycle;Signal;HPM_P1;HPM_P2
2024/03/09 00:04:20;;;;;;;141.60;56.30;;;;;;;-2.80;100.00;99181.20;271549;1276;22344;-87
2024/03/09 00:11:31;;;;;;;123.60;53.10;;;;;;;-2.76;100.00;99179.08;272239;1280;22191;-85
2024/03/09 00:18:25;;;;;;;123.40;53.80;;;;;;;-2.71;100.00;99179.71;272429;1276;22217;-85
2024/03/09 00:24:27;;;;;;;122.40;53.30;;;;;;;-2.71;100.00;99177.04;270527;1276;22289;-84
2024/03/09 00:31:19;;;;;;;127.10;56.30;;;;;;;-2.72;100.00;99171.95;272015;1280;23104;-85
2024/03/09 00:38:11;;;;;;;142.50;59.50;;;;;;;-2.77;100.00;99171.64;272509;1283;22207;-85
2024/03/09 00:44:41;;;;;;;131.20;56.10;;;;;;;-2.80;100.00;99171.08;272474;1276;22189;-84
2024/03/09 00:51:33;;;;;;;145.40;62.30;;;;;;;-2.85;100.00;99167.64;272387;1278;22232;-84
2024/03/09 01:13:22;;;;;;;140.00;59.30;;;;;;;-3.00;100.00;99148.95;272535;1283;23195;-84
2024/03/09 01:19:50;;;;;;;140.40;60.40;;;;;;;-3.01;100.00;99139.25;271914;1277;23199;-83
2024/03/09 01:25:53;;;;;;;145.70;62.90;;;;;;;-3.02;100.00;99134.06;272078;1276;22600;-85
2024/03/09 01:32:45;;;;;;;139.30;60.50;;;;;;;-3.05;100.00;99130.34;272584;1283;22188;-84
2024/03/09 01:38:50;;;;;;;147.20;59.40;;;;;;;-3.12;100.00;99120.02;272425;1277;22744;-83
2024/03/09 01:45:04;;;;;;;148.50;62.50;;;;;;;-3.20;100.00;99115.49;271753;1276;22234;-84
2024/03/09 01:52:14;;;;;;;128.80;55.20;;;;;;;-3.28;100.00;99111.84;272462;1279;22221;-83
2024/03/09 01:58:22;;;;;;;133.40;56.10;;;;;;;-3.27;100.00;99111.81;271260;1276;22937;-83
2024/03/09 02:04:30;;;;;;;147.40;62.30;;;;;;;-3.27;100.00;99112.08;270561;1276;168996;-84
2024/03/09 02:10:34;;;;;;;149.90;64.60;;;;;;;-3.26;100.00;99106.41;271578;1276;22190;-84
2024/03/09 02:16:38;;;;;;;133.20;55.30;;;;;;;-3.25;100.00;99105.58;269773;1276;22397;-84
2024/03/09 02:22:40;;;;;;;142.10;59.70;;;;;;;-3.21;100.00;99106.57;270752;1276;25363;-84
2024/03/09 02:28:57;;;;;;;143.00;60.50;;;;;;;-3.21;100.00;99101.59;272083;1277;23073;-84
2024/03/09 02:34:59;;;;;;;127.00;54.50;;;;;;;-3.26;100.00;99101.48;270857;1266;104514;-83
2024/03/09 02:41:07;;;;;;;122.30;54.70;;;;;;;-3.27;100.00;99107.69;270904;1274;22348;-84
2024/03/09 02:47:57;;;;;;;131.00;58.20;;;;;;;-3.28;100.00;99103.84;272399;1274;22198;-84
2024/03/09 02:54:02;;;;;;;134.50;55.80;;;;;;;-3.28;100.00;99096.35;271378;1274;22724;-84
2024/03/09 03:00:50;;;;;;;133.60;57.40;;;;;;;-3.38;100.00;99092.42;269764;1274;23891;-84
2024/03/09 03:06:57;;;;;;;127.80;57.20;;;;;;;-3.46;100.00;99090.20;272422;1275;22220;-84
2024/03/09 03:13:07;;;;;;;118.00;49.60;;;;;;;-3.50;100.00;99086.11;272502;1274;22864;-83
2024/03/09 03:19:14;;;;;;;135.00;57.10;;;;;;;-3.53;100.00;99081.80;271813;1275;22454;-84
2024/03/09 03:26:26;;;;;;;126.90;53.40;;;;;;;-3.53;100.00;99071.11;272411;1277;22156;-85
2024/03/09 03:32:40;;;;;;;132.00;54.00;;;;;;;-3.61;100.00;99063.25;272444;1277;22505;-84
2024/03/09 03:39:04;;;;;;;142.20;56.90;;;;;;;-3.68;100.00;99060.97;272305;1276;22291;-85
2024/03/09 03:45:11;;;;;;;134.30;55.30;;;;;;;-3.71;100.00;99061.52;269815;1278;22544;-84
2024/03/09 03:51:55;;;;;;;169.40;57.50;;;;;;;-3.67;100.00;99069.30;270748;1275;22206;-85
2024/03/09 03:59:02;;;;;;;166.30;57.20;;;;;;;-3.57;100.00;99063.65;270176;1262;22572;-85
2024/03/09 04:05:05;;;;;;;178.70;57.90;;;;;;;-3.48;100.00;99063.25;271043;1274;22970;-85
2024/03/09 04:11:20;;;;;;;171.40;57.60;;;;;;;-3.41;100.00;99063.98;271729;1274;22937;-84
2024/03/09 04:17:48;;;;;;;172.90;54.60;;;;;;;-3.35;100.00;99063.81;272422;1278;22204;-85
2024/03/09 04:23:50;;;;;;;173.60;53.60;;;;;;;-3.32;100.00;99072.67;271349;1276;22394;-85
2024/03/09 04:30:53;;;;;;;164.80;57.80;;;;;;;-3.27;100.00;99068.65;272306;1276;23574;-85
2024/03/09 04:36:56;;;;;;;171.80;58.00;;;;;;;-3.21;100.00;99066.84;272320;1276;22442;-85
2024/03/09 04:43:46;;;;;;;153.20;59.60;;;;;;;-3.19;100.00;99064.04;272353;1276;22340;-85
2024/03/09 04:50:40;;;;;;;154.80;57.10;;;;;;;-3.13;100.00;99062.05;272438;1276;23023;-85
2024/03/09 04:56:45;;;;;;;181.30;55.00;;;;;;;-3.11;100.00;99063.67;272173;1277;23517;-86
2024/03/09 05:03:30;;;;;;;146.50;51.70;;;;;;;-3.12;100.00;99065.98;272351;1279;22217;-85
2024/03/09 05:10:23;;;;;;;141.20;50.50;;;;;;;-3.10;100.00;99063.71;272358;1280;22177;-85
2024/03/09 05:16:50;;;;;;;125.30;48.50;;;;;;;-3.04;100.00;99061.45;272402;1282;22187;-86
2024/03/09 05:22:59;;;;;;;119.60;41.20;;;;;;;-2.98;100.00;99060.52;271348;1277;22193;-85
2024/03/09 05:29:30;;;;;;;117.20;40.60;;;;;;;-3.00;100.00;99054.39;270420;1276;23390;-85
2024/03/09 05:35:39;;;;;;;110.50;41.90;;;;;;;-3.00;100.00;99050.05;270773;1276;23578;-86
2024/03/09 05:41:55;;;;;;;114.60;43.10;;;;;;;-2.98;100.00;99051.27;269814;1276;22684;-84
2024/03/09 05:48:18;;;;;;;107.40;37.20;;;;;;;-2.96;100.00;99052.89;271606;1280;23430;-85
2024/03/09 05:54:37;;;;;;;110.80;36.70;;;;;;;-2.92;100.00;99060.04;272469;1275;22258;-87
2024/03/09 06:01:17;;;;;;;90.10;37.70;;;;;;;-2.86;100.00;99062.69;272126;1280;22194;-85
2024/03/09 06:07:19;;;;;;;102.00;36.50;;;;;;;-2.77;100.00;99065.73;272166;1280;22911;-86
2024/03/09 06:13:22;;;;;;;132.90;43.00;;;;;;;-2.67;100.00;99066.79;272199;1274;23342;-85
2024/03/09 06:20:17;;;;;;;127.10;43.90;;;;;;;-2.60;100.00;99065.37;272404;1278;22263;-84
2024/03/09 06:26:44;;;;;;;120.50;40.80;;;;;;;-2.59;100.00;99053.63;272195;1278;22243;-84
2024/03/09 06:32:54;;;;;;;92.40;37.50;;;;;;;-2.59;100.00;99056.09;272151;1274;22228;-85
2024/03/09 06:38:56;;;;;;;116.50;35.30;;;;;;;-2.56;100.00;99059.96;271969;1276;22364;-85
2024/03/09 06:45:51;;;;;;;105.00;39.20;;;;;;;-2.55;100.00;99054.33;271908;1274;22203;-83
2024/03/09 06:51:52;;;;;;;91.80;41.50;;;;;;;-2.46;100.00;99045.41;271532;1274;22216;-84
2024/03/09 06:58:28;;;;;;;104.60;41.20;;;;;;;-2.29;100.00;99041.52;272044;1274;22298;-85
2024/03/09 07:04:33;;;;;;;72.80;27.30;;;;;;;-2.17;100.00;99048.79;272083;1274;22471;-85
2024/03/09 07:10:47;;;;;;;118.80;45.20;;;;;;;-2.09;100.00;99057.20;272336;1281;22275;-87
2024/03/09 07:17:04;;;;;;;100.50;40.90;;;;;;;-2.01;100.00;99071.37;272047;1274;22219;-86
2024/03/09 07:23:10;;;;;;;111.30;43.30;;;;;;;-1.88;100.00;99075.55;271612;1275;25275;-86
2024/03/09 07:29:15;;;;;;;100.00;40.80;;;;;;;-1.75;100.00;99067.89;271202;1274;22266;-86
2024/03/09 07:35:37;;;;;;;109.50;44.80;;;;;;;-1.57;100.00;99075.31;270472;1274;22227;-86
2024/03/09 07:41:40;;;;;;;112.00;46.00;;;;;;;-1.42;100.00;99078.35;270475;1275;22190;-85
2024/03/09 07:47:49;;;;;;;107.40;41.90;;;;;;;-1.30;100.00;99073.58;271015;1274;22657;-84
2024/03/09 07:53:52;;;;;;;100.70;43.10;;;;;;;-1.22;100.00;99077.83;270050;1276;22488;-85
2024/03/09 07:59:55;;;;;;;106.50;41.70;;;;;;;-1.04;100.00;99076.00;270015;1267;22222;-87
2024/03/09 08:05:57;;;;;;;110.10;41.70;;;;;;;-0.95;100.00;99072.81;269097;1268;22652;-88
2024/03/09 08:12:05;;;;;;;89.70;36.50;;;;;;;-0.83;100.00;99069.63;269337;1275;24811;-87
2024/03/09 08:18:10;;;;;;;95.00;39.30;;;;;;;-0.73;100.00;99065.44;269717;1276;22598;-87
2024/03/09 08:24:15;;;;;;;87.50;35.60;;;;;;;-0.64;100.00;99055.84;268900;1275;22931;-89
2024/03/09 08:30:21;;;;;;;96.70;39.30;;;;;;;-0.49;100.00;99051.23;271182;1274;22447;-88
2024/03/09 08:36:24;;;;;;;94.70;38.80;;;;;;;-0.31;100.00;99049.75;270538;1275;22400;-88
2024/03/09 08:42:31;;;;;;;102.30;40.40;;;;;;;-0.13;100.00;99053.81;271085;1275;22185;-88
2024/03/09 08:49:57;;;;;;;94.10;38.50;;;;;;;-0.00;100.00;99051.10;270086;1274;22186;-87
2024/03/09 08:56:00;;;;;;;92.40;39.50;;;;;;;0.12;100.00;99044.63;269596;1271;22647;-88
2024/03/09 09:02:11;;;;;;;100.60;42.00;;;;;;;0.27;100.00;99038.82;269746;1275;22551;-85
2024/03/09 09:08:58;;;;;;;94.40;41.10;;;;;;;0.46;100.00;99036.70;271122;1277;22242;-87
2024/03/09 09:15:08;;;;;;;98.10;41.80;;;;;;;0.68;100.00;99026.61;271468;1274;22181;-87
2024/03/09 09:22:03;;;;;;;93.40;41.90;;;;;;;1.12;100.00;99025.63;271491;1273;22236;-85
2024/03/09 09:28:29;;;;;;;82.40;38.50;;;;;;;1.77;100.00;99015.18;271064;1279;22231;-88
2024/03/09 09:35:07;;;;;;;83.10;39.50;;;;;;;2.19;100.00;99004.98;270988;1279;22691;-84
2024/03/09 09:41:32;;;;;;;81.40;39.80;;;;;;;2.74;100.00;98996.20;270761;1277;22300;-85
2024/03/09 09:47:34;;;;;;;82.50;37.20;;;;;;;3.11;100.00;98995.42;271038;1279;23744;-84
2024/03/09 09:53:58;;;;;;;77.90;37.40;;;;;;;3.63;100.00;98991.50;270310;1279;22248;-85
2024/03/09 10:00:02;;;;;;;70.40;35.60;;;;;;;4.73;100.00;98986.34;272137;1274;22331;-86
2024/03/09 10:06:23;;;;;;;67.50;35.10;;;;;;;5.39;100.00;98983.53;271492;1271;22579;-84
2024/03/09 10:12:32;;;;;;;70.80;35.30;;;;;;;6.03;100.00;98977.27;271324;1274;23123;-86
2024/03/09 10:18:41;;;;;;;58.10;31.90;;;;;;;6.62;100.00;98980.98;271447;1274;22230;-87
2024/03/09 10:25:27;;;;;;;57.90;31.00;;;;;;;7.12;100.00;98976.66;271625;1271;23367;-86
2024/03/09 10:31:50;;;;;;;56.90;31.70;;;;;;;7.70;100.00;98971.17;272167;1275;23455;-86
2024/03/09 10:38:02;;;;;;;58.30;31.80;;;;;;;8.06;100.00;98969.91;272419;1283;22206;-88
2024/03/09 10:44:07;;;;;;;58.90;33.50;;;;;;;8.37;100.00;98960.82;272648;1277;22626;-85
2024/03/09 10:50:16;;;;;;;56.20;31.70;;;;;;;8.46;100.00;98944.25;271086;1259;22618;-87
2024/03/09 10:57:02;;;;;;;51.70;30.30;;;;;;;8.44;100.00;98931.03;272483;1280;22358;-85
2024/03/09 11:03:49;;;;;;;49.10;29.60;;;;;;;8.59;100.00;98911.27;272098;1274;23073;-87
2024/03/09 11:09:51;;;;;;;53.40;30.20;;;;;;;8.77;100.00;98906.29;270793;1274;22490;-87
2024/03/09 11:15:58;;;;;;;50.40;28.70;;;;;;;8.90;100.00;98907.59;271308;1274;23595;-86
2024/03/09 11:22:03;;;;;;;49.90;30.70;;;;;;;8.98;100.00;98896.25;270639;1274;23433;-85
2024/03/09 11:28:06;;;;;;;50.10;28.90;;;;;;;9.06;100.00;98877.11;272182;1276;22650;-86
2024/03/09 11:34:21;;;;;;;47.80;29.70;;;;;;;9.18;100.00;98871.74;272761;1282;22266;-86
2024/03/09 11:41:06;;;;;;;48.00;28.50;;;;;;;9.32;100.00;98867.65;270786;1274;22948;-85
2024/03/09 11:47:52;;;;;;;46.50;26.50;;;;;;;9.43;100.00;98862.80;270176;1264;22311;-86
2024/03/09 11:54:17;;;;;;;47.20;27.30;;;;;;;9.25;100.00;98852.33;272041;1274;23502;-85
2024/03/09 12:00:23;;;;;;;45.60;26.20;;;;;;;9.09;99.71;98844.08;271514;1271;22581;-87
2024/03/09 12:06:26;;;;;;;42.60;26.00;;;;;;;8.88;99.71;98842.13;270278;1268;22719;-84
2024/03/09 12:12:37;;;;;;;43.60;26.50;;;;;;;8.79;99.22;98827.55;272152;1274;24719;-84
2024/03/09 12:19:06;;;;;;;48.80;28.80;;;;;;;8.70;97.99;98809.01;270024;1268;22233;-88
2024/03/09 12:25:09;;;;;;;49.40;27.80;;;;;;;8.69;98.03;98800.03;271679;1274;22541;-85
2024/03/09 12:31:56;;;;;;;47.90;28.40;;;;;;;8.80;97.64;98795.67;271898;1277;23643;-86
2024/03/09 12:38:38;;;;;;;41.70;24.80;;;;;;;8.76;96.03;98795.46;272212;1275;23153;-84
2024/03/09 12:45:21;;;;;;;42.60;24.50;;;;;;;8.74;95.30;98800.34;272058;1277;22210;-86
2024/03/09 12:52:07;;;;;;;45.00;25.80;;;;;;;8.81;95.29;98790.46;271564;1274;22398;-85
2024/03/09 12:58:35;;;;;;;48.50;26.10;;;;;;;8.92;94.83;98774.02;271639;1274;22283;-87
2024/03/09 13:05:21;;;;;;;44.70;26.30;;;;;;;8.99;94.04;98763.66;271789;1274;22413;-86
2024/03/09 13:11:27;;;;;;;45.20;25.30;;;;;;;9.00;92.96;98757.66;272729;1282;23560;-86
2024/03/09 13:17:31;;;;;;;46.10;24.20;;;;;;;9.07;93.59;98751.29;271935;1274;22395;-85
2024/03/09 13:23:58;;;;;;;44.40;25.30;;;;;;;9.13;93.83;98750.27;272430;1276;22219;-86
2024/03/09 13:30:16;;;;;;;43.10;25.50;;;;;;;8.98;93.81;98741.19;270282;1274;22519;-85
2024/03/09 13:36:22;;;;;;;44.30;25.10;;;;;;;8.85;94.39;98726.89;269423;1274;22403;-85
2024/03/09 13:43:34;;;;;;;42.30;24.30;;;;;;;8.96;94.34;98722.05;272078;1274;22290;-86
2024/03/09 13:49:40;;;;;;;44.00;25.00;;;;;;;9.23;94.27;98727.91;272561;1276;22175;-86
2024/03/09 13:56:14;;;;;;;43.10;25.40;;;;;;;9.51;94.30;98718.48;272329;1277;22192;-85
2024/03/09 14:02:36;;;;;;;41.90;24.20;;;;;;;9.76;94.01;98711.32;267390;1274;6319476;-86
2024/03/09 14:08:39;;;;;;;42.30;25.40;;;;;;;9.93;94.07;98713.05;270809;1274;22527;-86
2024/03/09 14:14:54;;;;;;;40.80;22.10;;;;;;;10.13;94.12;98696.45;269069;1274;23067;-86
2024/03/09 14:21:20;;;;;;;35.90;22.60;;;;;;;10.17;93.44;98684.21;270186;1274;24184;-86
2024/03/09 14:27:22;;;;;;;31.30;19.70;;;;;;;10.26;93.59;98683.52;270060;1275;24236;-88
2024/03/09 14:34:07;;;;;;;33.80;19.50;;;;;;;10.31;91.74;98690.73;271556;1280;22398;-86
2024/03/09 14:40:12;;;;;;;28.80;18.40;;;;;;;10.29;91.61;98688.30;271659;1276;22217;-87
2024/03/09 14:46:54;;;;;;;34.80;20.80;;;;;;;10.35;92.05;98682.77;271727;1277;22462;-86
2024/03/09 14:53:17;;;;;;;34.10;20.60;;;;;;;10.35;91.94;98681.45;272661;1283;22193;-87
2024/03/09 14:59:58;;;;;;;30.10;19.30;;;;;;;10.34;91.49;98681.07;270389;1276;22543;-87
2024/03/09 15:06:00;;;;;;;25.40;14.60;;;;;;;10.35;90.19;98670.36;271315;1276;22420;-88
2024/03/09 15:12:07;;;;;;;27.70;17.60;;;;;;;10.41;90.12;98669.07;269719;1271;22553;-86
2024/03/09 15:18:13;;;;;;;17.90;11.10;;;;;;;10.38;90.36;98668.48;269454;1276;22638;-85
2024/03/09 15:24:35;;;;;;;10.50;7.30;;;;;;;10.30;86.60;98659.77;270951;1277;22200;-85
2024/03/09 15:30:38;;;;;;;22.10;11.90;;;;;;;10.22;86.23;98654.79;271539;1275;22508;-83
2024/03/09 15:36:52;;;;;;;21.00;12.70;;;;;;;10.03;86.62;98663.75;272334;1281;22219;-85
2024/03/09 15:42:55;;;;;;;19.90;10.50;;;;;;;9.86;85.64;98661.27;272132;1274;22287;-85
2024/03/09 15:49:03;;;;;;;18.00;10.00;;;;;;;9.77;83.39;98658.53;272099;1275;22227;-86
2024/03/09 15:55:06;;;;;;;15.20;9.80;;;;;;;9.69;82.33;98654.40;269484;1274;22443;-86
2024/03/09 16:01:08;;;;;;;14.40;8.50;;;;;;;9.59;81.51;98654.00;268738;1266;22634;-86
2024/03/09 16:07:13;;;;;;;17.20;9.40;;;;;;;9.49;81.14;98653.27;271104;1271;22218;-86
2024/03/09 16:13:35;;;;;;;17.90;10.90;;;;;;;9.39;80.86;98650.60;270560;1274;22981;-86
2024/03/09 16:19:39;;;;;;;23.00;13.10;;;;;;;9.29;80.59;98645.19;270807;1274;22220;-86
2024/03/09 16:25:47;;;;;;;29.50;16.40;;;;;;;9.14;80.68;98641.13;270955;1276;23852;-86
2024/03/09 16:32:14;;;;;;;33.70;18.80;;;;;;;8.95;81.96;98634.20;271546;1276;22278;-85
2024/03/09 16:38:38;;;;;;;;;;;;;;;8.75;83.41;98632.48;272339;1274;22521;-86
2024/03/09 16:44:42;;;;;;;36.80;22.50;;;;;;;8.60;84.12;98628.55;272068;1275;22373;-86
2024/03/09 16:51:25;;;;;;;46.20;25.60;;;;;;;8.50;84.37;98624.42;271912;1280;23177;-87
2024/03/09 16:58:05;;;;;;;38.70;24.60;;;;;;;8.39;84.75;98616.41;271556;1274;22649;-84
2024/03/09 17:04:11;;;;;;;40.10;20.70;;;;;;;8.21;84.87;98610.54;271817;1277;24681;-86
2024/03/09 17:10:18;;;;;;;38.90;23.30;;;;;;;8.04;84.91;98614.95;271976;1275;22971;-86
2024/03/09 17:16:20;;;;;;;45.80;27.40;;;;;;;7.96;84.76;98617.48;271952;1275;22261;-85
2024/03/09 17:22:29;;;;;;;53.50;29.90;;;;;;;7.92;84.87;98618.65;271443;1275;22385;-86
2024/03/09 17:28:35;;;;;;;52.10;28.00;;;;;;;7.82;85.07;98608.94;271234;1275;25163;-86
2024/03/09 17:34:37;;;;;;;53.50;29.00;;;;;;;7.76;85.35;98608.98;271859;1275;22405;-86
2024/03/09 17:40:46;;;;;;;58.40;31.70;;;;;;;7.75;85.45;98609.67;272302;1274;22341;-86
2024/03/09 17:47:10;;;;;;;48.40;26.30;;;;;;;7.75;85.49;98612.55;272122;1275;22689;-85
2024/03/09 17:53:32;;;;;;;41.00;23.40;;;;;;;7.75;85.28;98616.36;264256;1271;10001938;-85
2024/03/09 17:59:34;;;;;;;51.00;26.70;;;;;;;7.71;85.24;98620.89;271670;1275;22233;-85
2024/03/09 18:05:40;;;;;;;53.10;29.30;;;;;;;7.69;85.08;98625.77;271813;1274;22232;-85
2024/03/09 18:12:05;;;;;;;51.40;28.50;;;;;;;7.64;85.10;98625.54;271789;1275;22254;-85
2024/03/09 18:18:13;;;;;;;59.20;31.30;;;;;;;7.52;85.19;98619.19;269861;1276;22549;-84
2024/03/09 18:24:36;;;;;;;53.60;28.70;;;;;;;7.39;85.30;98619.27;271664;1274;22201;-84
2024/03/09 18:30:40;;;;;;;54.10;28.80;;;;;;;7.25;85.33;98609.67;272367;1274;22250;-86
2024/03/09 18:37:23;;;;;;;49.50;25.80;;;;;;;7.15;85.63;98607.02;271713;1274;22209;-85
2024/03/09 18:43:48;;;;;;;55.10;27.30;;;;;;;7.06;85.85;98616.55;271971;1275;22693;-85
2024/03/09 18:49:49;;;;;;;70.50;34.10;;;;;;;6.92;86.12;98613.63;271659;1274;22387;-85
2024/03/09 18:55:53;;;;;;;80.20;33.40;;;;;;;6.85;86.30;98608.53;272067;1274;22318;-84
2024/03/09 19:02:36;;;;;;;83.30;35.00;;;;;;;6.84;86.50;98615.43;272263;1279;22185;-85
2024/03/09 19:08:58;;;;;;;56.70;29.50;;;;;;;6.77;86.69;98616.13;271871;1274;22434;-85
2024/03/09 19:15:10;;;;;;;59.10;31.30;;;;;;;6.61;86.99;98625.00;272303;1277;22208;-84
2024/03/09 19:21:12;;;;;;;59.10;29.20;;;;;;;6.40;87.14;98621.14;270341;1274;22546;-83
2024/03/09 19:27:34;;;;;;;60.80;33.00;;;;;;;6.27;87.48;98623.71;269927;1274;24105;-85
2024/03/09 19:33:56;;;;;;;82.00;40.10;;;;;;;6.03;87.47;98622.00;269901;1274;22545;-84
2024/03/09 19:39:58;;;;;;;84.70;35.00;;;;;;;5.79;88.27;98616.05;269259;1273;22571;-85
2024/03/09 19:46:01;;;;;;;68.10;36.40;;;;;;;5.70;88.62;98618.65;271402;1276;22373;-84
2024/03/09 19:52:06;;;;;;;73.60;39.30;;;;;;;5.59;88.77;98616.97;271766;1276;22211;-85
2024/03/09 19:58:28;;;;;;;63.90;34.80;;;;;;;5.48;89.16;98618.55;271224;1277;26034;-85
2024/03/09 20:04:30;;;;;;;63.80;33.80;;;;;;;5.37;89.90;98611.52;271281;1274;22220;-85
2024/03/09 20:11:12;;;;;;;57.60;31.10;;;;;;;5.29;90.19;98613.59;272206;1277;23436;-84
2024/03/09 20:17:42;;;;;;;53.90;28.00;;;;;;;5.35;90.22;98610.71;271787;1277;22341;-85
2024/03/09 20:24:05;;;;;;;87.30;39.00;;;;;;;5.60;90.35;98609.33;272067;1277;22931;-85
2024/03/09 20:30:09;;;;;;;75.40;38.40;;;;;;;5.64;90.17;98609.50;272111;1280;22157;-85
2024/03/09 20:36:32;;;;;;;80.20;39.20;;;;;;;5.56;90.11;98605.58;271961;1276;23392;-84
2024/03/09 20:42:34;;;;;;;69.90;37.90;;;;;;;5.45;90.58;98611.81;271401;1277;23140;-84
2024/03/09 20:48:39;;;;;;;65.40;34.70;;;;;;;5.36;90.83;98609.27;272273;1277;22200;-84
2024/03/09 20:54:43;;;;;;;63.70;32.70;;;;;;;5.31;90.98;98604.33;271969;1264;22185;-85
2024/03/09 21:00:45;;;;;;;63.50;31.70;;;;;;;5.31;91.36;98599.89;270203;1277;22195;-84
2024/03/09 21:07:29;;;;;;;58.10;30.10;;;;;;;5.31;91.58;98594.09;270420;1276;22383;-84
2024/03/09 21:13:33;;;;;;;53.80;28.00;;;;;;;5.30;91.67;98595.69;270319;1277;22314;-85
2024/03/09 21:20:16;;;;;;;56.90;29.30;;;;;;;5.26;91.70;98595.57;272152;1278;22217;-84
2024/03/09 21:26:40;;;;;;;49.40;25.10;;;;;;;5.24;91.85;98594.30;272306;1280;22251;-85
2024/03/09 21:32:44;;;;;;;47.80;27.40;;;;;;;5.21;92.02;98578.79;271414;1277;22292;-84
2024/03/09 21:39:27;;;;;;;51.00;27.10;;;;;;;5.15;92.26;98567.64;272359;1277;22226;-84
2024/03/09 21:46:48;;;;;;;49.70;26.60;;;;;;;5.10;92.59;98561.84;272225;1276;22204;-84
2024/03/09 21:53:11;;;;;;;47.50;25.70;;;;;;;5.08;92.74;98561.64;271538;1276;22229;-85
2024/03/09 21:59:55;;;;;;;49.20;25.90;;;;;;;5.08;92.96;98567.61;271934;1278;22188;-84
2024/03/09 22:06:17;;;;;;;49.40;26.80;;;;;;;5.11;92.88;98576.82;272139;1260;22229;-85
2024/03/09 22:13:00;;;;;;;45.70;25.00;;;;;;;5.12;93.16;98582.21;271927;1278;22147;-85
2024/03/09 22:19:26;;;;;;;58.30;29.50;;;;;;;5.12;93.17;98586.77;272119;1276;22216;-85
2024/03/09 22:25:28;;;;;;;57.80;28.60;;;;;;;5.07;93.30;98594.23;271699;1276;23097;-84
2024/03/09 22:31:30;;;;;;;55.80;29.80;;;;;;;5.00;93.57;98592.12;272001;1276;23478;-85
2024/03/09 22:37:40;;;;;;;55.60;29.00;;;;;;;4.95;93.98;98592.91;271628;1276;22467;-85
2024/03/09 22:43:42;;;;;;;62.30;30.20;;;;;;;4.90;94.34;98587.52;270999;1276;22588;-84
2024/03/09 22:49:44;;;;;;;58.30;30.50;;;;;;;4.86;94.29;98576.55;270479;1276;23433;-86
2024/03/09 22:56:07;;;;;;;56.90;29.90;;;;;;;4.82;94.59;98579.25;271831;1273;22215;-85
2024/03/09 23:02:11;;;;;;;58.10;31.40;;;;;;;4.78;94.75;98581.55;270833;1277;22172;-85
2024/03/09 23:08:15;;;;;;;57.70;30.00;;;;;;;4.73;95.06;98577.38;271418;1276;22334;-86
2024/03/09 23:14:18;;;;;;;62.60;33.30;;;;;;;4.70;95.15;98560.71;271271;1276;23133;-85
2024/03/09 23:20:22;;;;;;;61.50;32.50;;;;;;;4.62;95.17;98549.63;271638;1277;22805;-85
2024/03/09 23:26:49;;;;;;;65.70;34.40;;;;;;;4.55;95.53;98557.06;271978;1276;23017;-84
2024/03/09 23:33:11;;;;;;;64.00;34.00;;;;;;;4.47;95.38;98559.46;272054;1280;22221;-84
2024/03/09 23:39:27;;;;;;;64.40;33.00;;;;;;;4.42;95.62;98555.66;271768;1277;22893;-84
2024/03/09 23:45:52;;;;;;;68.40;35.00;;;;;;;4.37;95.79;98548.64;271657;1277;22079;-84
2024/03/09 23:52:16;;;;;;;64.20;32.40;;;;;;;4.27;95.81;98537.68;271736;1277;23810;-85
2024/03/09 23:58:19;;;;;;;58.80;31.70;;;;;;;4.20;95.91;98533.28;270163;1276;22586;-85
